Airport ID:K00U
Update Time (UTC):14/05/2021 20:11
Wind Speed (Knots):3
Wind Direction (Magnetic):360
Temperature (°C):20
Dew Point (°C):3
Humidity (%):33
Altimeter (inHg):30.04
Density Altitude (Feet):4300
Visibility:10+
Clouds (Hundreds of feet):CLR
Present Weather:
METAR:METAR K00U 142010Z AUTO VRB03G11KT 10SM CLR 20/03 A3004 RMK A01

The data displayed is for advisory purposes only and is not to be used for flight planning or operations.